sensor_id;sensor_type;location;lat;lon;timestamp;pressure;altitude;pressure_sealevel;temperature;humidity
74334;BME280;62753;40.394;-80.022;2023-02-04T00:01:15;98806.18;;;-6.68;27.52
74334;BME280;62753;40.394;-80.022;2023-02-04T00:03:40;98815.49;;;-6.95;26.80
74334;BME280;62753;40.394;-80.022;2023-02-04T00:06:06;98815.56;;;-5.95;26.04
74334;BME280;62753;40.394;-80.022;2023-02-04T00:08:31;98819.06;;;-6.73;26.58
74334;BME280;62753;40.394;-80.022;2023-02-04T00:10:56;98815.78;;;-6.55;26.53
74334;BME280;62753;40.394;-80.022;2023-02-04T00:13:21;98820.01;;;-6.11;26.59
74334;BME280;62753;40.394;-80.022;2023-02-04T00:15:46;98820.62;;;-5.94;26.40
74334;BME280;62753;40.394;-80.022;2023-02-04T00:18:12;98823.91;;;-6.91;26.75
74334;BME280;62753;40.394;-80.022;2023-02-04T00:20:37;98826.90;;;-8.08;27.46
74334;BME280;62753;40.394;-80.022;2023-02-04T00:23:03;98830.98;;;-7.73;27.78
74334;BME280;62753;40.394;-80.022;2023-02-04T00:25:28;98831.38;;;-7.56;28.05
74334;BME280;62753;40.394;-80.022;2023-02-04T00:27:53;98829.83;;;-6.92;27.24
74334;BME280;62753;40.394;-80.022;2023-02-04T00:30:19;98835.16;;;-6.44;27.09
74334;BME280;62753;40.394;-80.022;2023-02-04T00:32:44;98829.42;;;-6.37;26.89
74334;BME280;62753;40.394;-80.022;2023-02-04T00:35:09;98833.04;;;-6.47;26.55
74334;BME280;62753;40.394;-80.022;2023-02-04T00:37:34;98833.04;;;-5.76;26.71
74334;BME280;62753;40.394;-80.022;2023-02-04T00:39:59;98841.01;;;-6.07;25.95
74334;BME280;62753;40.394;-80.022;2023-02-04T00:42:25;98842.19;;;-6.33;26.05
74334;BME280;62753;40.394;-80.022;2023-02-04T00:44:50;98849.15;;;-6.22;26.83
74334;BME280;62753;40.394;-80.022;2023-02-04T00:47:15;98852.05;;;-5.22;25.68
74334;BME280;62753;40.394;-80.022;2023-02-04T00:49:41;98849.55;;;-5.22;25.21
74334;BME280;62753;40.394;-80.022;2023-02-04T00:52:05;98845.03;;;-5.53;25.58
74334;BME280;62753;40.394;-80.022;2023-02-04T00:54:31;98844.36;;;-5.73;26.32
74334;BME280;62753;40.394;-80.022;2023-02-04T00:56:55;98844.26;;;-5.17;25.56
74334;BME280;62753;40.394;-80.022;2023-02-04T00:59:21;98842.58;;;-6.38;26.58
74334;BME280;62753;40.394;-80.022;2023-02-04T01:01:47;98842.29;;;-5.83;26.67
74334;BME280;62753;40.394;-80.022;2023-02-04T01:04:12;98841.98;;;-5.56;26.22
74334;BME280;62753;40.394;-80.022;2023-02-04T01:06:38;98841.16;;;-5.60;26.00
74334;BME280;62753;40.394;-80.022;2023-02-04T01:09:03;98840.02;;;-5.64;25.91
74334;BME280;62753;40.394;-80.022;2023-02-04T01:11:28;98843.18;;;-6.23;26.35
74334;BME280;62753;40.394;-80.022;2023-02-04T01:13:53;98848.53;;;-4.88;25.75
74334;BME280;62753;40.394;-80.022;2023-02-04T01:16:18;98849.98;;;-5.13;25.79
74334;BME280;62753;40.394;-80.022;2023-02-04T01:18:43;98851.78;;;-5.89;26.64
74334;BME280;62753;40.394;-80.022;2023-02-04T01:21:09;98856.53;;;-5.69;27.08
74334;BME280;62753;40.394;-80.022;2023-02-04T01:23:35;98860.35;;;-5.71;26.72
74334;BME280;62753;40.394;-80.022;2023-02-04T01:25:59;98867.17;;;-4.81;26.36
74334;BME280;62753;40.394;-80.022;2023-02-04T01:28:24;98872.85;;;-5.62;26.26
74334;BME280;62753;40.394;-80.022;2023-02-04T01:30:50;98881.43;;;-6.27;27.17
74334;BME280;62753;40.394;-80.022;2023-02-04T01:33:15;98884.74;;;-5.78;26.95
74334;BME280;62753;40.394;-80.022;2023-02-04T01:35:40;98887.24;;;-6.46;27.89
74334;BME280;62753;40.394;-80.022;2023-02-04T01:38:05;98892.79;;;-6.30;27.65
74334;BME280;62753;40.394;-80.022;2023-02-04T01:40:31;98900.07;;;-7.73;29.06
74334;BME280;62753;40.394;-80.022;2023-02-04T01:42:55;98903.04;;;-6.10;28.09
74334;BME280;62753;40.394;-80.022;2023-02-04T01:45:21;98907.81;;;-6.70;27.83
74334;BME280;62753;40.394;-80.022;2023-02-04T01:47:46;98912.12;;;-6.78;28.42
74334;BME280;62753;40.394;-80.022;2023-02-04T01:50:13;98906.35;;;-6.15;27.39
74334;BME280;62753;40.394;-80.022;2023-02-04T01:52:38;98911.56;;;-5.40;27.31
74334;BME280;62753;40.394;-80.022;2023-02-04T01:55:02;98904.21;;;-5.50;26.68
74334;BME280;62753;40.394;-80.022;2023-02-04T01:57:27;98905.84;;;-5.24;26.91
74334;BME280;62753;40.394;-80.022;2023-02-04T01:59:54;98905.88;;;-5.09;26.35
74334;BME280;62753;40.394;-80.022;2023-02-04T02:02:37;98907.61;;;-4.65;25.90
74334;BME280;62753;40.394;-80.022;2023-02-04T02:04:42;98901.93;;;-5.32;25.67
74334;BME280;62753;40.394;-80.022;2023-02-04T02:07:08;98912.49;;;-5.58;26.65
74334;BME280;62753;40.394;-80.022;2023-02-04T02:09:34;98912.07;;;-6.92;28.09
74334;BME280;62753;40.394;-80.022;2023-02-04T02:11:59;98912.35;;;-6.42;28.34
74334;BME280;62753;40.394;-80.022;2023-02-04T02:14:23;98912.86;;;-5.61;27.46
74334;BME280;62753;40.394;-80.022;2023-02-04T02:16:49;98912.25;;;-6.37;27.91
74334;BME280;62753;40.394;-80.022;2023-02-04T02:19:19;98916.65;;;-6.89;28.35
74334;BME280;62753;40.394;-80.022;2023-02-04T02:21:46;98921.77;;;-6.05;28.03
74334;BME280;62753;40.394;-80.022;2023-02-04T02:26:30;98920.75;;;-6.55;28.44
74334;BME280;62753;40.394;-80.022;2023-02-04T02:28:55;98919.89;;;-6.06;27.72
74334;BME280;62753;40.394;-80.022;2023-02-04T02:31:21;98923.54;;;-6.47;27.68
74334;BME280;62753;40.394;-80.022;2023-02-04T02:33:45;98922.80;;;-6.37;27.89
74334;BME280;62753;40.394;-80.022;2023-02-04T02:36:11;98918.16;;;-6.39;27.37
74334;BME280;62753;40.394;-80.022;2023-02-04T02:38:37;98923.04;;;-6.30;27.64
74334;BME280;62753;40.394;-80.022;2023-02-04T02:41:02;98918.99;;;-5.85;27.94
74334;BME280;62753;40.394;-80.022;2023-02-04T02:43:28;98936.20;;;-5.91;27.68
74334;BME280;62753;40.394;-80.022;2023-02-04T02:45:52;98942.90;;;-5.93;27.14
74334;BME280;62753;40.394;-80.022;2023-02-04T02:48:18;98946.72;;;-5.54;26.79
74334;BME280;62753;40.394;-80.022;2023-02-04T02:50:43;98958.75;;;-5.89;26.73
74334;BME280;62753;40.394;-80.022;2023-02-04T02:53:10;98959.07;;;-5.29;26.35
74334;BME280;62753;40.394;-80.022;2023-02-04T02:55:34;98955.80;;;-5.67;26.93
74334;BME280;62753;40.394;-80.022;2023-02-04T02:58:00;98962.32;;;-5.85;26.65
74334;BME280;62753;40.394;-80.022;2023-02-04T03:00:26;98961.25;;;-5.65;26.37
74334;BME280;62753;40.394;-80.022;2023-02-04T03:02:55;98960.15;;;-4.83;25.74
74334;BME280;62753;40.394;-80.022;2023-02-04T03:05:15;98958.00;;;-5.40;25.88
74334;BME280;62753;40.394;-80.022;2023-02-04T03:07:40;98963.03;;;-5.27;25.96
74334;BME280;62753;40.394;-80.022;2023-02-04T03:10:06;98969.53;;;-5.25;25.73
74334;BME280;62753;40.394;-80.022;2023-02-04T03:12:31;98966.84;;;-5.20;25.69
74334;BME280;62753;40.394;-80.022;2023-02-04T03:14:56;98965.00;;;-4.68;25.45
74334;BME280;62753;40.394;-80.022;2023-02-04T03:17:21;98963.39;;;-5.22;25.47
74334;BME280;62753;40.394;-80.022;2023-02-04T03:19:46;98951.36;;;-5.23;25.39
74334;BME280;62753;40.394;-80.022;2023-02-04T03:22:11;98953.10;;;-4.91;25.38
74334;BME280;62753;40.394;-80.022;2023-02-04T03:24:36;98955.46;;;-4.67;25.53
74334;BME280;62753;40.394;-80.022;2023-02-04T03:27:01;98963.79;;;-4.77;25.23
74334;BME280;62753;40.394;-80.022;2023-02-04T03:29:27;98965.04;;;-5.56;25.44
74334;BME280;62753;40.394;-80.022;2023-02-04T03:31:52;98968.48;;;-4.69;25.63
74334;BME280;62753;40.394;-80.022;2023-02-04T03:34:17;98968.53;;;-5.06;26.12
74334;BME280;62753;40.394;-80.022;2023-02-04T03:36:42;98976.33;;;-5.30;25.99
74334;BME280;62753;40.394;-80.022;2023-02-04T03:39:08;98983.61;;;-5.32;25.89
74334;BME280;62753;40.394;-80.022;2023-02-04T03:41:33;98986.56;;;-4.91;25.24
74334;BME280;62753;40.394;-80.022;2023-02-04T03:43:57;98988.31;;;-5.07;25.55
74334;BME280;62753;40.394;-80.022;2023-02-04T03:46:23;98988.36;;;-5.37;26.60
74334;BME280;62753;40.394;-80.022;2023-02-04T03:48:48;98988.23;;;-5.32;25.84
74334;BME280;62753;40.394;-80.022;2023-02-04T03:51:13;98994.25;;;-5.80;26.96
74334;BME280;62753;40.394;-80.022;2023-02-04T03:53:38;98996.99;;;-6.03;27.46
74334;BME280;62753;40.394;-80.022;2023-02-04T03:56:04;98992.75;;;-5.89;27.65
74334;BME280;62753;40.394;-80.022;2023-02-04T03:58:29;98991.76;;;-5.25;26.70
74334;BME280;62753;40.394;-80.022;2023-02-04T04:00:54;98989.21;;;-5.49;27.22
74334;BME280;62753;40.394;-80.022;2023-02-04T04:03:19;98984.12;;;-5.45;27.20
74334;BME280;62753;40.394;-80.022;2023-02-04T04:05:44;98976.47;;;-5.40;26.56
74334;BME280;62753;40.394;-80.022;2023-02-04T04:08:10;98975.45;;;-5.48;27.33
74334;BME280;62753;40.394;-80.022;2023-02-04T04:10:36;98970.37;;;-5.69;26.73
74334;BME280;62753;40.394;-80.022;2023-02-04T04:13:01;98961.45;;;-5.31;26.69
74334;BME280;62753;40.394;-80.022;2023-02-04T04:15:26;98954.03;;;-6.47;27.31
74334;BME280;62753;40.394;-80.022;2023-02-04T04:17:51;98945.09;;;-6.12;27.36
74334;BME280;62753;40.394;-80.022;2023-02-04T04:20:17;98938.15;;;-5.24;27.10
74334;BME280;62753;40.394;-80.022;2023-02-04T04:22:41;98932.80;;;-5.80;27.37
74334;BME280;62753;40.394;-80.022;2023-02-04T04:25:07;98931.47;;;-5.19;26.93
74334;BME280;62753;40.394;-80.022;2023-02-04T04:27:32;98930.08;;;-5.50;27.33
74334;BME280;62753;40.394;-80.022;2023-02-04T04:29:57;98930.65;;;-5.66;26.94
74334;BME280;62753;40.394;-80.022;2023-02-04T04:32:22;98931.70;;;-4.78;26.63
74334;BME280;62753;40.394;-80.022;2023-02-04T04:34:47;98926.57;;;-5.43;26.81
74334;BME280;62753;40.394;-80.022;2023-02-04T04:37:13;98921.50;;;-5.39;26.79
74334;BME280;62753;40.394;-80.022;2023-02-04T04:39:38;98925.18;;;-5.07;26.26
74334;BME280;62753;40.394;-80.022;2023-02-04T04:42:04;98923.06;;;-4.69;26.62
74334;BME280;62753;40.394;-80.022;2023-02-04T04:44:29;98919.00;;;-5.67;26.71
74334;BME280;62753;40.394;-80.022;2023-02-04T04:46:54;98921.50;;;-4.84;26.20
74334;BME280;62753;40.394;-80.022;2023-02-04T04:49:20;98925.48;;;-4.74;26.44
74334;BME280;62753;40.394;-80.022;2023-02-04T04:51:44;98930.92;;;-4.76;26.12
74334;BME280;62753;40.394;-80.022;2023-02-04T04:54:10;98936.57;;;-4.48;26.22
74334;BME280;62753;40.394;-80.022;2023-02-04T04:56:35;98943.29;;;-5.04;26.15
74334;BME280;62753;40.394;-80.022;2023-02-04T04:59:01;98949.70;;;-4.92;26.09
74334;BME280;62753;40.394;-80.022;2023-02-04T05:01:26;98953.91;;;-5.09;26.66
74334;BME280;62753;40.394;-80.022;2023-02-04T05:03:51;98962.74;;;-4.92;26.38
74334;BME280;62753;40.394;-80.022;2023-02-04T05:06:16;98962.18;;;-5.19;26.77
74334;BME280;62753;40.394;-80.022;2023-02-04T05:08:41;98962.70;;;-5.58;26.92
74334;BME280;62753;40.394;-80.022;2023-02-04T05:11:07;98962.25;;;-5.01;27.19
74334;BME280;62753;40.394;-80.022;2023-02-04T05:13:32;98962.20;;;-5.16;26.43
74334;BME280;62753;40.394;-80.022;2023-02-04T05:15:57;98962.35;;;-4.63;26.16
74334;BME280;62753;40.394;-80.022;2023-02-04T05:18:22;98962.01;;;-4.81;26.07
74334;BME280;62753;40.394;-80.022;2023-02-04T05:20:48;98964.34;;;-4.57;25.76
74334;BME280;62753;40.394;-80.022;2023-02-04T05:23:13;98964.75;;;-4.55;25.66
74334;BME280;62753;40.394;-80.022;2023-02-04T05:25:38;98963.80;;;-4.54;25.73
74334;BME280;62753;40.394;-80.022;2023-02-04T05:28:03;98962.81;;;-4.35;25.80
74334;BME280;62753;40.394;-80.022;2023-02-04T05:30:29;98960.24;;;-4.74;25.70
74334;BME280;62753;40.394;-80.022;2023-02-04T05:32:53;98959.40;;;-4.76;25.83
74334;BME280;62753;40.394;-80.022;2023-02-04T05:35:19;98960.87;;;-4.89;26.14
74334;BME280;62753;40.394;-80.022;2023-02-04T05:37:44;98960.45;;;-4.63;25.49
74334;BME280;62753;40.394;-80.022;2023-02-04T05:40:10;98961.14;;;-4.58;25.71
74334;BME280;62753;40.394;-80.022;2023-02-04T05:42:34;98957.29;;;-4.68;25.63
74334;BME280;62753;40.394;-80.022;2023-02-04T05:45:00;98959.04;;;-4.72;25.71
74334;BME280;62753;40.394;-80.022;2023-02-04T05:47:24;98956.27;;;-5.42;26.32
74334;BME280;62753;40.394;-80.022;2023-02-04T05:49:50;98951.30;;;-5.18;26.34
74334;BME280;62753;40.394;-80.022;2023-02-04T05:52:15;98952.67;;;-4.61;26.17
74334;BME280;62753;40.394;-80.022;2023-02-04T05:54:40;98954.58;;;-5.10;26.11
74334;BME280;62753;40.394;-80.022;2023-02-04T05:57:11;98952.79;;;-5.15;25.99
74334;BME280;62753;40.394;-80.022;2023-02-04T05:59:30;98954.66;;;-4.50;25.70
74334;BME280;62753;40.394;-80.022;2023-02-04T06:01:56;98943.89;;;-4.65;25.49
74334;BME280;62753;40.394;-80.022;2023-02-04T06:04:21;98938.72;;;-4.60;25.97
74334;BME280;62753;40.394;-80.022;2023-02-04T06:06:46;98938.93;;;-4.54;25.96
74334;BME280;62753;40.394;-80.022;2023-02-04T06:09:11;98942.36;;;-4.85;25.96
74334;BME280;62753;40.394;-80.022;2023-02-04T06:11:36;98944.03;;;-4.56;26.18
74334;BME280;62753;40.394;-80.022;2023-02-04T06:14:01;98939.15;;;-4.94;25.96
74334;BME280;62753;40.394;-80.022;2023-02-04T06:16:27;98937.73;;;-4.76;25.90
74334;BME280;62753;40.394;-80.022;2023-02-04T06:18:51;98929.71;;;-4.43;25.53
74334;BME280;62753;40.394;-80.022;2023-02-04T06:21:17;98927.76;;;-4.75;25.89
74334;BME280;62753;40.394;-80.022;2023-02-04T06:23:42;98925.19;;;-4.15;25.77
74334;BME280;62753;40.394;-80.022;2023-02-04T06:26:07;98928.08;;;-4.13;25.84
74334;BME280;62753;40.394;-80.022;2023-02-04T06:28:32;98931.04;;;-4.89;26.18
74334;BME280;62753;40.394;-80.022;2023-02-04T06:30:58;98925.77;;;-4.61;26.04
74334;BME280;62753;40.394;-80.022;2023-02-04T06:33:23;98923.57;;;-4.51;26.68
74334;BME280;62753;40.394;-80.022;2023-02-04T06:35:48;98927.14;;;-4.35;26.66
74334;BME280;62753;40.394;-80.022;2023-02-04T06:38:13;98925.77;;;-4.33;26.63
74334;BME280;62753;40.394;-80.022;2023-02-04T06:40:38;98928.04;;;-4.56;25.59
74334;BME280;62753;40.394;-80.022;2023-02-04T06:43:03;98932.45;;;-4.67;26.14
74334;BME280;62753;40.394;-80.022;2023-02-04T06:45:28;98929.06;;;-4.18;26.17
74334;BME280;62753;40.394;-80.022;2023-02-04T06:47:53;98937.25;;;-5.20;26.50
74334;BME280;62753;40.394;-80.022;2023-02-04T06:50:18;98933.50;;;-4.45;25.68
74334;BME280;62753;40.394;-80.022;2023-02-04T06:52:44;98931.25;;;-4.32;25.92
74334;BME280;62753;40.394;-80.022;2023-02-04T06:55:09;98938.85;;;-4.61;26.25
74334;BME280;62753;40.394;-80.022;2023-02-04T06:57:34;98937.74;;;-4.62;26.18
74334;BME280;62753;40.394;-80.022;2023-02-04T06:59:59;98936.05;;;-4.59;26.37
74334;BME280;62753;40.394;-80.022;2023-02-04T07:02:24;98935.17;;;-4.26;25.82
74334;BME280;62753;40.394;-80.022;2023-02-04T07:04:49;98939.05;;;-4.40;25.92
74334;BME280;62753;40.394;-80.022;2023-02-04T07:07:14;98945.16;;;-4.44;26.51
74334;BME280;62753;40.394;-80.022;2023-02-04T07:09:39;98941.84;;;-4.56;26.49
74334;BME280;62753;40.394;-80.022;2023-02-04T07:12:05;98943.09;;;-6.58;28.30
74334;BME280;62753;40.394;-80.022;2023-02-04T07:14:29;98941.49;;;-5.91;28.14
74334;BME280;62753;40.394;-80.022;2023-02-04T07:16:55;98947.00;;;-5.02;27.61
74334;BME280;62753;40.394;-80.022;2023-02-04T07:19:20;98949.46;;;-5.04;27.32
74334;BME280;62753;40.394;-80.022;2023-02-04T07:21:45;98951.41;;;-5.31;27.16
74334;BME280;62753;40.394;-80.022;2023-02-04T07:24:11;98945.92;;;-4.72;27.08
74334;BME280;62753;40.394;-80.022;2023-02-04T07:26:36;98945.32;;;-5.42;27.52
74334;BME280;62753;40.394;-80.022;2023-02-04T07:29:01;98938.80;;;-4.86;26.84
74334;BME280;62753;40.394;-80.022;2023-02-04T07:31:26;98929.27;;;-4.92;26.64
74334;BME280;62753;40.394;-80.022;2023-02-04T07:33:51;98925.61;;;-4.47;26.25
74334;BME280;62753;40.394;-80.022;2023-02-04T07:36:16;98919.60;;;-4.74;26.56
74334;BME280;62753;40.394;-80.022;2023-02-04T07:38:41;98916.95;;;-4.52;26.18
74334;BME280;62753;40.394;-80.022;2023-02-04T07:41:07;98924.20;;;-4.55;26.09
74334;BME280;62753;40.394;-80.022;2023-02-04T07:43:32;98925.23;;;-4.18;26.24
74334;BME280;62753;40.394;-80.022;2023-02-04T07:45:57;98923.53;;;-4.85;26.71
74334;BME280;62753;40.394;-80.022;2023-02-04T07:48:22;98920.68;;;-4.45;25.88
74334;BME280;62753;40.394;-80.022;2023-02-04T07:50:47;98923.86;;;-3.88;25.60
74334;BME280;62753;40.394;-80.022;2023-02-04T07:53:13;98924.64;;;-4.25;26.04
74334;BME280;62753;40.394;-80.022;2023-02-04T07:55:37;98922.76;;;-4.13;25.89
74334;BME280;62753;40.394;-80.022;2023-02-04T07:58:03;98924.51;;;-4.44;25.99
74334;BME280;62753;40.394;-80.022;2023-02-04T08:00:27;98923.39;;;-4.45;25.86
74334;BME280;62753;40.394;-80.022;2023-02-04T08:02:53;98919.10;;;-3.92;25.64
74334;BME280;62753;40.394;-80.022;2023-02-04T08:05:18;98916.56;;;-4.05;25.40
74334;BME280;62753;40.394;-80.022;2023-02-04T08:07:43;98924.51;;;-4.44;25.63
74334;BME280;62753;40.394;-80.022;2023-02-04T08:10:10;98914.75;;;-4.19;25.68
74334;BME280;62753;40.394;-80.022;2023-02-04T08:12:33;98912.77;;;-4.39;25.88
74334;BME280;62753;40.394;-80.022;2023-02-04T08:14:58;98910.30;;;-3.94;25.57
74334;BME280;62753;40.394;-80.022;2023-02-04T08:17:23;98911.29;;;-4.00;25.41
74334;BME280;62753;40.394;-80.022;2023-02-04T08:19:49;98909.11;;;-4.03;25.78
74334;BME280;62753;40.394;-80.022;2023-02-04T08:22:14;98914.72;;;-3.73;25.54
74334;BME280;62753;40.394;-80.022;2023-02-04T08:24:39;98923.03;;;-4.05;25.39
74334;BME280;62753;40.394;-80.022;2023-02-04T08:27:04;98922.50;;;-4.13;25.99
74334;BME280;62753;40.394;-80.022;2023-02-04T08:29:29;98915.96;;;-4.55;25.99
74334;BME280;62753;40.394;-80.022;2023-02-04T08:31:54;98913.50;;;-4.28;25.92
74334;BME280;62753;40.394;-80.022;2023-02-04T08:34:19;98914.58;;;-3.88;25.62
74334;BME280;62753;40.394;-80.022;2023-02-04T08:36:44;98920.50;;;-3.60;25.39
74334;BME280;62753;40.394;-80.022;2023-02-04T08:39:10;98918.74;;;-4.03;25.49
74334;BME280;62753;40.394;-80.022;2023-02-04T08:41:35;98913.20;;;-4.21;25.17
74334;BME280;62753;40.394;-80.022;2023-02-04T08:43:59;98916.67;;;-3.98;24.78
74334;BME280;62753;40.394;-80.022;2023-02-04T08:46:24;98919.20;;;-3.91;25.07
74334;BME280;62753;40.394;-80.022;2023-02-04T08:48:50;98922.49;;;-4.61;25.29
74334;BME280;62753;40.394;-80.022;2023-02-04T08:51:15;98931.24;;;-4.09;25.15
74334;BME280;62753;40.394;-80.022;2023-02-04T08:53:40;98936.46;;;-4.09;24.97
74334;BME280;62753;40.394;-80.022;2023-02-04T08:56:06;98945.17;;;-4.62;26.33
74334;BME280;62753;40.394;-80.022;2023-02-04T08:58:36;98941.14;;;-4.36;26.64
74334;BME280;62753;40.394;-80.022;2023-02-04T09:00:56;98947.52;;;-3.95;26.36
74334;BME280;62753;40.394;-80.022;2023-02-04T09:03:21;98950.28;;;-4.27;26.40
74334;BME280;62753;40.394;-80.022;2023-02-04T09:05:46;98948.08;;;-4.34;25.99
74334;BME280;62753;40.394;-80.022;2023-02-04T09:08:11;98938.53;;;-4.25;26.08
74334;BME280;62753;40.394;-80.022;2023-02-04T09:10:36;98933.51;;;-3.97;26.09
74334;BME280;62753;40.394;-80.022;2023-02-04T09:13:01;98935.10;;;-3.80;25.59
74334;BME280;62753;40.394;-80.022;2023-02-04T09:15:27;98937.06;;;-4.17;25.93
74334;BME280;62753;40.394;-80.022;2023-02-04T09:17:52;98934.96;;;-4.52;26.78
74334;BME280;62753;40.394;-80.022;2023-02-04T09:20:17;98931.34;;;-5.29;27.52
74334;BME280;62753;40.394;-80.022;2023-02-04T09:22:42;98930.56;;;-5.19;27.89
74334;BME280;62753;40.394;-80.022;2023-02-04T09:25:08;98923.77;;;-5.32;28.02
74334;BME280;62753;40.394;-80.022;2023-02-04T09:27:33;98919.56;;;-4.53;27.65
74334;BME280;62753;40.394;-80.022;2023-02-04T09:29:59;98914.21;;;-4.58;26.90
74334;BME280;62753;40.394;-80.022;2023-02-04T09:32:23;98914.44;;;-4.70;27.34
74334;BME280;62753;40.394;-80.022;2023-02-04T09:34:49;98906.11;;;-5.60;28.56
74334;BME280;62753;40.394;-80.022;2023-02-04T09:37:14;98902.94;;;-7.84;32.34
74334;BME280;62753;40.394;-80.022;2023-02-04T09:39:39;98902.66;;;-8.29;33.68
74334;BME280;62753;40.394;-80.022;2023-02-04T09:42:04;98903.43;;;-8.01;32.48
74334;BME280;62753;40.394;-80.022;2023-02-04T09:44:30;98900.82;;;-7.45;32.24
74334;BME280;62753;40.394;-80.022;2023-02-04T09:46:56;98889.60;;;-9.05;34.00
74334;BME280;62753;40.394;-80.022;2023-02-04T09:49:20;98885.64;;;-8.41;34.18
74334;BME280;62753;40.394;-80.022;2023-02-04T09:51:46;98879.11;;;-7.33;33.38
74334;BME280;62753;40.394;-80.022;2023-02-04T09:54:12;98866.81;;;-8.05;33.56
74334;BME280;62753;40.394;-80.022;2023-02-04T09:56:35;98865.06;;;-9.05;35.15
74334;BME280;62753;40.394;-80.022;2023-02-04T09:59:03;98852.84;;;-8.98;36.33
74334;BME280;62753;40.394;-80.022;2023-02-04T10:01:27;98844.37;;;-8.81;36.70
74334;BME280;62753;40.394;-80.022;2023-02-04T10:03:52;98837.46;;;-9.57;37.49
74334;BME280;62753;40.394;-80.022;2023-02-04T10:06:18;98835.36;;;-9.14;38.09
74334;BME280;62753;40.394;-80.022;2023-02-04T10:08:42;98843.96;;;-9.10;36.95
74334;BME280;62753;40.394;-80.022;2023-02-04T10:11:07;98840.67;;;-9.35;37.43
74334;BME280;62753;40.394;-80.022;2023-02-04T10:13:34;98840.19;;;-9.74;37.09
74334;BME280;62753;40.394;-80.022;2023-02-04T10:15:58;98842.75;;;-9.25;37.26
74334;BME280;62753;40.394;-80.022;2023-02-04T10:18:26;98847.93;;;-9.97;38.43
74334;BME280;62753;40.394;-80.022;2023-02-04T10:20:48;98854.78;;;-9.89;38.61
74334;BME280;62753;40.394;-80.022;2023-02-04T10:23:13;98864.72;;;-9.34;37.51
74334;BME280;62753;40.394;-80.022;2023-02-04T10:25:39;98870.73;;;-9.46;37.16
74334;BME280;62753;40.394;-80.022;2023-02-04T10:28:04;98876.52;;;-9.02;36.26
74334;BME280;62753;40.394;-80.022;2023-02-04T10:30:30;98874.65;;;-8.70;36.25
74334;BME280;62753;40.394;-80.022;2023-02-04T10:32:54;98872.20;;;-8.03;35.40
74334;BME280;62753;40.394;-80.022;2023-02-04T10:35:20;98879.49;;;-8.80;35.79
74334;BME280;62753;40.394;-80.022;2023-02-04T10:37:45;98885.80;;;-8.04;34.71
74334;BME280;62753;40.394;-80.022;2023-02-04T10:40:26;98889.86;;;-9.33;35.90
74334;BME280;62753;40.394;-80.022;2023-02-04T10:42:35;98886.55;;;-9.60;36.36
74334;BME280;62753;40.394;-80.022;2023-02-04T10:45:00;98884.27;;;-9.34;36.46
74334;BME280;62753;40.394;-80.022;2023-02-04T10:47:27;98894.05;;;-10.32;37.58
74334;BME280;62753;40.394;-80.022;2023-02-04T10:49:53;98898.16;;;-10.85;39.01
74334;BME280;62753;40.394;-80.022;2023-02-04T10:52:18;98891.69;;;-11.27;40.54
74334;BME280;62753;40.394;-80.022;2023-02-04T10:54:41;98891.12;;;-11.67;40.95
74334;BME280;62753;40.394;-80.022;2023-02-04T10:57:16;98887.34;;;-10.55;39.62
74334;BME280;62753;40.394;-80.022;2023-02-04T10:59:32;98894.75;;;-10.29;38.86
74334;BME280;62753;40.394;-80.022;2023-02-04T11:01:59;98894.90;;;-10.66;39.44
74334;BME280;62753;40.394;-80.022;2023-02-04T11:04:23;98892.29;;;-10.17;38.45
74334;BME280;62753;40.394;-80.022;2023-02-04T11:06:47;98902.58;;;-10.65;38.92
74334;BME280;62753;40.394;-80.022;2023-02-04T11:09:13;98897.56;;;-9.32;37.06
74334;BME280;62753;40.394;-80.022;2023-02-04T11:11:38;98894.74;;;-10.12;37.84
74334;BME280;62753;40.394;-80.022;2023-02-04T11:14:04;98882.34;;;-11.03;39.05
74334;BME280;62753;40.394;-80.022;2023-02-04T11:16:31;98878.54;;;-11.91;42.02
74334;BME280;62753;40.394;-80.022;2023-02-04T11:18:55;98890.91;;;-13.13;43.57
74334;BME280;62753;40.394;-80.022;2023-02-04T11:21:25;98896.04;;;-11.70;41.31
74334;BME280;62753;40.394;-80.022;2023-02-04T11:23:45;98897.08;;;-10.76;39.01
74334;BME280;62753;40.394;-80.022;2023-02-04T11:26:11;98899.60;;;-11.35;40.35
74334;BME280;62753;40.394;-80.022;2023-02-04T11:28:46;98898.77;;;-10.42;38.64
74334;BME280;62753;40.394;-80.022;2023-02-04T11:31:01;98894.82;;;-11.04;40.43
74334;BME280;62753;40.394;-80.022;2023-02-04T11:36:00;98886.71;;;-11.67;41.70
74334;BME280;62753;40.394;-80.022;2023-02-04T11:38:24;98884.56;;;-11.77;42.18
74334;BME280;62753;40.394;-80.022;2023-02-04T11:40:41;98885.39;;;-11.97;42.42
74334;BME280;62753;40.394;-80.022;2023-02-04T11:43:11;98873.37;;;-11.11;41.18
74334;BME280;62753;40.394;-80.022;2023-02-04T11:45:33;98867.81;;;-11.84;41.78
74334;BME280;62753;40.394;-80.022;2023-02-04T11:48:00;98869.64;;;-11.49;42.26
74334;BME280;62753;40.394;-80.022;2023-02-04T11:50:26;98863.32;;;-11.70;42.45
74334;BME280;62753;40.394;-80.022;2023-02-04T11:52:48;98872.60;;;-11.93;42.31
74334;BME280;62753;40.394;-80.022;2023-02-04T11:55:13;98886.20;;;-11.04;41.47
74334;BME280;62753;40.394;-80.022;2023-02-04T11:57:39;98897.25;;;-11.38;41.27
74334;BME280;62753;40.394;-80.022;2023-02-04T12:00:04;98896.24;;;-11.32;40.85
74334;BME280;62753;40.394;-80.022;2023-02-04T12:04:56;98887.55;;;-9.85;37.88
74334;BME280;62753;40.394;-80.022;2023-02-04T12:07:26;98893.90;;;-10.94;39.06
74334;BME280;62753;40.394;-80.022;2023-02-04T12:09:46;98888.99;;;-10.33;40.22
74334;BME280;62753;40.394;-80.022;2023-02-04T12:12:09;98883.57;;;-11.21;40.18
74334;BME280;62753;40.394;-80.022;2023-02-04T12:14:37;98877.62;;;-10.94;39.10
74334;BME280;62753;40.394;-80.022;2023-02-04T12:17:11;98872.19;;;-10.85;40.13
74334;BME280;62753;40.394;-80.022;2023-02-04T12:19:26;98873.64;;;-10.50;38.67
74334;BME280;62753;40.394;-80.022;2023-02-04T12:21:51;98871.34;;;-9.94;38.49
74334;BME280;62753;40.394;-80.022;2023-02-04T12:24:16;98873.61;;;-9.76;37.74
74334;BME280;62753;40.394;-80.022;2023-02-04T12:26:41;98877.59;;;-10.25;38.34
74334;BME280;62753;40.394;-80.022;2023-02-04T12:29:06;98878.69;;;-10.84;38.06
74334;BME280;62753;40.394;-80.022;2023-02-04T12:31:32;98880.01;;;-12.01;41.52
74334;BME280;62753;40.394;-80.022;2023-02-04T12:33:57;98880.21;;;-12.03;41.78